Terminal Aerodrome Forecast
Issued by NWS Billings, MT

Home | Current Version | Previous Version | Text Only | Print | Product List | Glossary Off
Versions: 1 2 3 4 5 6 7 8 9 10 11 12 13 14 15 16 17 18 19 20 21 22 23 24 25 26 27 28 29 30 31 32 33 34 35 36 37 38

000
FTUS45 KBYZ 260530
TAFMLS
TAF
KMLS 260530Z 2606/2706 36010KT P6SM OVC012
     FM261000 36008KT P6SM VCSH OVC012
     FM261400 34006KT 3SM -SN BR OVC012
     FM262000 04006KT 2SM -SN BR OVC012=

USA.gov is the U.S. government's official web portal to all federal, state and local government web resources and services.